Beachview, Louisiana
Current Conditions -  °F | °C
As of 1:53 PM on Friday 21 Nov 2014 (Local Time) from KMSY Reporting Station
Few Clouds Few Clouds  
Wind Chill: 68°   Ceiling: Unl
Heat Index: 68°   Visibility: 10mi
Dew Point: 51°   Wind: 14mph
Humidity: 55%   Direction: 80°E
Pressure: 30.24"   Gusts: NA
Location:  29.991°N, 90.2553°W
Report Text: KMSY 211953Z 08012KT 10SM FEW010 FEW042 20/11 A3024 RMK AO2 SLP242 FU FEW010 T02000106
Loading
Personal Weather Stations






























Interactive Weather Map New forecast layout! Learn more

10-Day Weather Forecast

Advertisements
Track Severe Weather on mobile